sensor_id;sensor_type;location;lat;lon;timestamp;P1;P2;P0
35654;PMS1003;21773;50.010;19.972;2022-11-15T00:03:02;26.00;22.50;18.00
35654;PMS1003;21773;50.010;19.972;2022-11-15T00:06:24;24.60;22.20;19.00
35654;PMS1003;21773;50.010;19.972;2022-11-15T00:09:46;28.60;25.00;21.00
35654;PMS1003;21773;50.010;19.972;2022-11-15T00:13:09;23.00;22.00;19.00
35654;PMS1003;21773;50.010;19.972;2022-11-15T00:16:34;24.40;22.40;18.60
35654;PMS1003;21773;50.010;19.972;2022-11-15T00:19:56;26.20;24.20;19.20
35654;PMS1003;21773;50.010;19.972;2022-11-15T00:23:18;23.00;22.00;18.00
35654;PMS1003;21773;50.010;19.972;2022-11-15T00:26:40;23.20;20.00;16.20
35654;PMS1003;21773;50.010;19.972;2022-11-15T00:30:01;28.00;25.00;20.00
35654;PMS1003;21773;50.010;19.972;2022-11-15T00:33:25;20.60;19.60;17.00
35654;PMS1003;21773;50.010;19.972;2022-11-15T00:36:47;25.50;20.50;17.00
35654;PMS1003;21773;50.010;19.972;2022-11-15T00:40:10;26.75;24.00;19.25
35654;PMS1003;21773;50.010;19.972;2022-11-15T00:43:32;24.80;23.40;19.40
35654;PMS1003;21773;50.010;19.972;2022-11-15T00:46:54;26.80;22.80;19.60
35654;PMS1003;21773;50.010;19.972;2022-11-15T00:50:18;25.75;23.25;19.25
35654;PMS1003;21773;50.010;19.972;2022-11-15T00:53:40;27.00;26.00;21.00
35654;PMS1003;21773;50.010;19.972;2022-11-15T00:57:02;27.40;23.40;19.40
35654;PMS1003;21773;50.010;19.972;2022-11-15T01:00:24;25.20;24.20;20.00
35654;PMS1003;21773;50.010;19.972;2022-11-15T01:03:46;24.50;23.00;18.00
35654;PMS1003;21773;50.010;19.972;2022-11-15T01:07:09;24.40;22.60;18.60
35654;PMS1003;21773;50.010;19.972;2022-11-15T01:10:31;21.00;20.00;17.00
35654;PMS1003;21773;50.010;19.972;2022-11-15T01:13:53;23.00;21.00;17.00
35654;PMS1003;21773;50.010;19.972;2022-11-15T01:17:16;23.20;22.20;18.00
35654;PMS1003;21773;50.010;19.972;2022-11-15T01:20:39;22.50;19.50;16.00
35654;PMS1003;21773;50.010;19.972;2022-11-15T01:24:04;24.40;20.00;17.40
35654;PMS1003;21773;50.010;19.972;2022-11-15T01:27:27;19.20;17.20;15.00
35654;PMS1003;21773;50.010;19.972;2022-11-15T01:30:49;22.00;19.00;17.40
35654;PMS1003;21773;50.010;19.972;2022-11-15T01:34:11;21.20;18.80;16.00
35654;PMS1003;21773;50.010;19.972;2022-11-15T01:37:33;21.20;19.20;16.00
35654;PMS1003;21773;50.010;19.972;2022-11-15T01:40:56;24.00;19.60;17.60
35654;PMS1003;21773;50.010;19.972;2022-11-15T01:48:08;20.00;19.00;16.60
35654;PMS1003;21773;50.010;19.972;2022-11-15T01:51:32;26.80;21.80;17.00
35654;PMS1003;21773;50.010;19.972;2022-11-15T01:54:56;21.50;20.50;17.75
35654;PMS1003;21773;50.010;19.972;2022-11-15T01:58:26;19.00;17.00;14.00
35654;PMS1003;21773;50.010;19.972;2022-11-15T02:01:48;23.00;21.00;19.00
35654;PMS1003;21773;50.010;19.972;2022-11-15T02:05:10;23.00;19.00;16.60
35654;PMS1003;21773;50.010;19.972;2022-11-15T02:08:32;19.40;18.00;15.40
35654;PMS1003;21773;50.010;19.972;2022-11-15T02:11:54;23.00;20.60;17.00
35654;PMS1003;21773;50.010;19.972;2022-11-15T02:15:18;22.50;19.25;17.00
35654;PMS1003;21773;50.010;19.972;2022-11-15T02:18:41;22.00;19.00;17.00
35654;PMS1003;21773;50.010;19.972;2022-11-15T02:22:10;23.00;20.00;15.00
35654;PMS1003;21773;50.010;19.972;2022-11-15T02:25:41;21.67;18.33;16.00
35654;PMS1003;21773;50.010;19.972;2022-11-15T02:29:20;23.20;19.00;16.60
35654;PMS1003;21773;50.010;19.972;2022-11-15T02:33:00;22.00;21.00;18.00
35654;PMS1003;21773;50.010;19.972;2022-11-15T02:36:33;18.60;17.00;15.60
35654;PMS1003;21773;50.010;19.972;2022-11-15T02:40:04;19.00;17.40;14.00
35654;PMS1003;21773;50.010;19.972;2022-11-15T02:43:35;21.40;19.40;17.00
35654;PMS1003;21773;50.010;19.972;2022-11-15T02:47:19;20.00;18.00;15.00
35654;PMS1003;21773;50.010;19.972;2022-11-15T02:50:44;19.50;18.25;15.00
35654;PMS1003;21773;50.010;19.972;2022-11-15T02:54:09;20.00;18.60;17.00
35654;PMS1003;21773;50.010;19.972;2022-11-15T02:57:36;17.75;17.50;15.00
35654;PMS1003;21773;50.010;19.972;2022-11-15T03:01:04;17.60;16.40;14.00
35654;PMS1003;21773;50.010;19.972;2022-11-15T03:04:36;19.00;18.00;15.50
35654;PMS1003;21773;50.010;19.972;2022-11-15T03:08:05;17.00;15.75;14.75
35654;PMS1003;21773;50.010;19.972;2022-11-15T03:11:32;14.00;13.60;12.00
35654;PMS1003;21773;50.010;19.972;2022-11-15T03:14:59;16.00;15.00;14.00
35654;PMS1003;21773;50.010;19.972;2022-11-15T03:18:26;17.60;16.00;14.00
35654;PMS1003;21773;50.010;19.972;2022-11-15T03:21:52;20.40;20.00;18.00
35654;PMS1003;21773;50.010;19.972;2022-11-15T03:25:19;18.20;16.20;13.00
35654;PMS1003;21773;50.010;19.972;2022-11-15T03:28:45;17.00;16.50;15.00
35654;PMS1003;21773;50.010;19.972;2022-11-15T03:32:12;16.60;15.60;14.60
35654;PMS1003;21773;50.010;19.972;2022-11-15T03:35:40;17.00;17.00;15.00
35654;PMS1003;21773;50.010;19.972;2022-11-15T03:39:06;18.25;15.75;14.00
35654;PMS1003;21773;50.010;19.972;2022-11-15T03:42:31;17.00;17.00;14.00
35654;PMS1003;21773;50.010;19.972;2022-11-15T03:46:01;20.60;20.00;18.00
35654;PMS1003;21773;50.010;19.972;2022-11-15T03:49:25;19.50;17.00;15.00
35654;PMS1003;21773;50.010;19.972;2022-11-15T03:52:53;20.00;17.00;14.00
35654;PMS1003;21773;50.010;19.972;2022-11-15T03:56:15;19.00;17.00;16.00
35654;PMS1003;21773;50.010;19.972;2022-11-15T03:59:38;19.60;17.60;15.60
35654;PMS1003;21773;50.010;19.972;2022-11-15T04:03:00;20.25;18.50;15.75
35654;PMS1003;21773;50.010;19.972;2022-11-15T04:06:22;19.00;18.00;16.00
35654;PMS1003;21773;50.010;19.972;2022-11-15T04:09:44;14.50;12.50;11.25
35654;PMS1003;21773;50.010;19.972;2022-11-15T04:13:25;16.60;16.00;14.40
35654;PMS1003;21773;50.010;19.972;2022-11-15T04:16:48;16.80;15.00;12.60
35654;PMS1003;21773;50.010;19.972;2022-11-15T04:20:11;17.00;15.00;13.00
35654;PMS1003;21773;50.010;19.972;2022-11-15T04:23:52;18.00;17.00;15.00
35654;PMS1003;21773;50.010;19.972;2022-11-15T04:27:37;17.00;16.00;14.00
35654;PMS1003;21773;50.010;19.972;2022-11-15T04:30:59;17.00;15.80;13.80
35654;PMS1003;21773;50.010;19.972;2022-11-15T04:34:22;17.40;16.40;14.00
35654;PMS1003;21773;50.010;19.972;2022-11-15T04:37:45;14.20;12.80;10.20
35654;PMS1003;21773;50.010;19.972;2022-11-15T04:41:08;16.33;15.33;13.67
35654;PMS1003;21773;50.010;19.972;2022-11-15T04:44:30;15.00;14.00;11.00
35654;PMS1003;21773;50.010;19.972;2022-11-15T04:47:52;14.60;13.60;12.00
35654;PMS1003;21773;50.010;19.972;2022-11-15T04:51:15;19.80;18.00;16.00
35654;PMS1003;21773;50.010;19.972;2022-11-15T04:54:37;17.00;16.00;14.40
35654;PMS1003;21773;50.010;19.972;2022-11-15T04:57:59;12.00;11.00;9.75
35654;PMS1003;21773;50.010;19.972;2022-11-15T05:01:21;14.00;14.00;11.00
35654;PMS1003;21773;50.010;19.972;2022-11-15T05:04:43;16.25;14.25;13.00
35654;PMS1003;21773;50.010;19.972;2022-11-15T05:08:06;17.20;17.00;15.20
35654;PMS1003;21773;50.010;19.972;2022-11-15T05:11:28;14.80;13.00;11.80
35654;PMS1003;21773;50.010;19.972;2022-11-15T05:14:50;15.00;13.00;11.00
35654;PMS1003;21773;50.010;19.972;2022-11-15T05:18:12;16.00;15.00;12.50
35654;PMS1003;21773;50.010;19.972;2022-11-15T05:21:39;14.00;14.00;12.00
35654;PMS1003;21773;50.010;19.972;2022-11-15T05:25:03;15.67;13.67;12.00
35654;PMS1003;21773;50.010;19.972;2022-11-15T05:28:26;15.00;13.60;12.60
35654;PMS1003;21773;50.010;19.972;2022-11-15T05:31:48;15.60;14.60;12.20
35654;PMS1003;21773;50.010;19.972;2022-11-15T05:35:11;15.00;14.00;12.00
35654;PMS1003;21773;50.010;19.972;2022-11-15T05:38:36;18.00;17.00;14.40
35654;PMS1003;21773;50.010;19.972;2022-11-15T05:42:00;15.20;15.00;13.00
35654;PMS1003;21773;50.010;19.972;2022-11-15T05:45:27;21.00;19.00;17.00
35654;PMS1003;21773;50.010;19.972;2022-11-15T05:48:50;26.25;25.75;22.25
35654;PMS1003;21773;50.010;19.972;2022-11-15T05:52:14;15.00;15.00;12.60
35654;PMS1003;21773;50.010;19.972;2022-11-15T05:55:39;19.00;15.00;13.00
35654;PMS1003;21773;50.010;19.972;2022-11-15T05:59:03;22.40;19.40;17.40
35654;PMS1003;21773;50.010;19.972;2022-11-15T06:02:26;17.00;15.60;13.60
35654;PMS1003;21773;50.010;19.972;2022-11-15T06:05:48;19.00;18.00;16.00
35654;PMS1003;21773;50.010;19.972;2022-11-15T06:09:11;18.00;16.00;13.00
35654;PMS1003;21773;50.010;19.972;2022-11-15T06:12:33;17.00;15.00;13.00
35654;PMS1003;21773;50.010;19.972;2022-11-15T06:15:56;18.00;15.00;12.80
35654;PMS1003;21773;50.010;19.972;2022-11-15T06:19:18;17.00;15.60;14.00
35654;PMS1003;21773;50.010;19.972;2022-11-15T06:22:40;16.67;16.00;14.67
35654;PMS1003;21773;50.010;19.972;2022-11-15T06:26:02;24.00;22.00;19.40
35654;PMS1003;21773;50.010;19.972;2022-11-15T06:29:24;19.00;17.25;15.25
35654;PMS1003;21773;50.010;19.972;2022-11-15T06:32:47;18.40;17.40;14.40
35654;PMS1003;21773;50.010;19.972;2022-11-15T06:36:10;16.20;15.60;12.60
35654;PMS1003;21773;50.010;19.972;2022-11-15T06:39:37;21.80;20.80;18.00
35654;PMS1003;21773;50.010;19.972;2022-11-15T06:42:59;21.50;19.25;18.00
35654;PMS1003;21773;50.010;19.972;2022-11-15T06:46:21;18.00;17.00;15.00
35654;PMS1003;21773;50.010;19.972;2022-11-15T06:49:44;19.00;16.00;15.00
35654;PMS1003;21773;50.010;19.972;2022-11-15T06:53:06;19.00;17.20;15.60
35654;PMS1003;21773;50.010;19.972;2022-11-15T06:56:27;22.40;20.60;17.60
35654;PMS1003;21773;50.010;19.972;2022-11-15T06:59:50;21.00;17.00;15.33
35654;PMS1003;21773;50.010;19.972;2022-11-15T07:03:11;17.00;14.75;13.00
35654;PMS1003;21773;50.010;19.972;2022-11-15T07:06:35;18.00;17.00;14.60
35654;PMS1003;21773;50.010;19.972;2022-11-15T07:09:57;22.60;21.00;18.00
35654;PMS1003;21773;50.010;19.972;2022-11-15T07:13:19;16.20;16.00;14.00
35654;PMS1003;21773;50.010;19.972;2022-11-15T07:16:41;16.00;15.00;13.00
35654;PMS1003;21773;50.010;19.972;2022-11-15T07:20:03;19.40;17.60;15.00
35654;PMS1003;21773;50.010;19.972;2022-11-15T07:23:27;19.00;17.00;15.00
35654;PMS1003;21773;50.010;19.972;2022-11-15T07:26:49;21.60;19.00;17.00
35654;PMS1003;21773;50.010;19.972;2022-11-15T07:30:12;19.67;18.67;16.33
35654;PMS1003;21773;50.010;19.972;2022-11-15T07:33:35;19.00;17.40;16.00
35654;PMS1003;21773;50.010;19.972;2022-11-15T07:36:58;17.60;15.00;14.00
35654;PMS1003;21773;50.010;19.972;2022-11-15T07:40:21;19.75;18.00;15.00
35654;PMS1003;21773;50.010;19.972;2022-11-15T07:43:43;20.00;18.00;16.00
35654;PMS1003;21773;50.010;19.972;2022-11-15T07:47:05;19.20;18.20;16.00
35654;PMS1003;21773;50.010;19.972;2022-11-15T07:50:27;16.60;13.60;12.60
35654;PMS1003;21773;50.010;19.972;2022-11-15T07:53:49;16.00;14.60;12.60
35654;PMS1003;21773;50.010;19.972;2022-11-15T07:57:13;17.75;16.75;14.75
35654;PMS1003;21773;50.010;19.972;2022-11-15T08:00:35;18.60;18.60;15.60
35654;PMS1003;21773;50.010;19.972;2022-11-15T08:03:57;18.00;17.00;15.00
35654;PMS1003;21773;50.010;19.972;2022-11-15T08:07:19;28.40;27.00;23.00
35654;PMS1003;21773;50.010;19.972;2022-11-15T08:10:40;16.80;16.80;15.00
35654;PMS1003;21773;50.010;19.972;2022-11-15T08:14:03;17.75;17.75;15.75
35654;PMS1003;21773;50.010;19.972;2022-11-15T08:17:25;19.00;16.00;14.00
35654;PMS1003;21773;50.010;19.972;2022-11-15T08:20:47;16.00;15.60;13.00
35654;PMS1003;21773;50.010;19.972;2022-11-15T08:24:09;16.60;15.00;13.00
35654;PMS1003;21773;50.010;19.972;2022-11-15T08:27:31;19.40;18.60;16.40
35654;PMS1003;21773;50.010;19.972;2022-11-15T08:30:55;19.60;17.60;16.00
35654;PMS1003;21773;50.010;19.972;2022-11-15T08:34:17;19.40;18.40;16.00
35654;PMS1003;21773;50.010;19.972;2022-11-15T08:37:39;19.00;16.00;12.60
35654;PMS1003;21773;50.010;19.972;2022-11-15T08:41:01;22.20;19.00;17.20
35654;PMS1003;21773;50.010;19.972;2022-11-15T08:44:26;22.60;18.60;16.60
35654;PMS1003;21773;50.010;19.972;2022-11-15T08:47:49;21.60;19.60;16.60
35654;PMS1003;21773;50.010;19.972;2022-11-15T08:51:13;20.50;19.00;16.00
35654;PMS1003;21773;50.010;19.972;2022-11-15T08:54:35;20.00;18.80;16.00
35654;PMS1003;21773;50.010;19.972;2022-11-15T08:57:57;20.60;18.60;15.60
35654;PMS1003;21773;50.010;19.972;2022-11-15T09:01:19;20.80;18.00;14.60
35654;PMS1003;21773;50.010;19.972;2022-11-15T09:04:43;20.75;19.25;16.00
35654;PMS1003;21773;50.010;19.972;2022-11-15T09:08:06;23.60;21.00;19.00
35654;PMS1003;21773;50.010;19.972;2022-11-15T09:11:47;17.67;16.67;14.67
35654;PMS1003;21773;50.010;19.972;2022-11-15T09:15:10;18.20;16.40;13.40
35654;PMS1003;21773;50.010;19.972;2022-11-15T09:18:33;21.60;20.00;17.00
35654;PMS1003;21773;50.010;19.972;2022-11-15T09:21:56;24.80;21.00;17.60
35654;PMS1003;21773;50.010;19.972;2022-11-15T09:25:18;24.00;21.60;18.60
35654;PMS1003;21773;50.010;19.972;2022-11-15T09:28:40;21.25;20.25;17.00
35654;PMS1003;21773;50.010;19.972;2022-11-15T09:32:03;22.60;21.00;17.60
35654;PMS1003;21773;50.010;19.972;2022-11-15T09:35:25;27.00;24.50;20.00
35654;PMS1003;21773;50.010;19.972;2022-11-15T09:38:48;21.00;18.20;15.00
35654;PMS1003;21773;50.010;19.972;2022-11-15T09:42:21;21.40;20.00;17.40
35654;PMS1003;21773;50.010;19.972;2022-11-15T09:45:55;20.75;20.00;17.00
35654;PMS1003;21773;50.010;19.972;2022-11-15T09:49:40;22.40;20.40;16.40
35654;PMS1003;21773;50.010;19.972;2022-11-15T09:52:54;24.00;21.25;18.00
35654;PMS1003;21773;50.010;19.972;2022-11-15T09:56:00;23.00;21.00;17.60
35654;PMS1003;21773;50.010;19.972;2022-11-15T09:59:11;29.80;27.20;21.80
35654;PMS1003;21773;50.010;19.972;2022-11-15T10:02:31;24.00;22.60;19.60
35654;PMS1003;21773;50.010;19.972;2022-11-15T10:05:44;26.00;23.00;19.00
35654;PMS1003;21773;50.010;19.972;2022-11-15T10:08:51;28.40;26.40;22.00
35654;PMS1003;21773;50.010;19.972;2022-11-15T10:12:01;26.00;25.00;21.00
35654;PMS1003;21773;50.010;19.972;2022-11-15T10:15:08;25.60;22.00;19.00
35654;PMS1003;21773;50.010;19.972;2022-11-15T10:18:17;26.40;24.00;20.60
35654;PMS1003;21773;50.010;19.972;2022-11-15T10:21:32;22.60;21.00;18.60
35654;PMS1003;21773;50.010;19.972;2022-11-15T10:24:46;27.75;24.75;20.00
35654;PMS1003;21773;50.010;19.972;2022-11-15T10:27:55;25.80;23.80;20.00
35654;PMS1003;21773;50.010;19.972;2022-11-15T10:31:01;25.00;23.40;20.00
35654;PMS1003;21773;50.010;19.972;2022-11-15T10:34:10;25.20;23.80;20.00
35654;PMS1003;21773;50.010;19.972;2022-11-15T10:37:20;28.00;25.00;20.00
35654;PMS1003;21773;50.010;19.972;2022-11-15T10:40:31;23.00;22.20;18.20
35654;PMS1003;21773;50.010;19.972;2022-11-15T10:43:35;22.60;20.80;17.80
35654;PMS1003;21773;50.010;19.972;2022-11-15T10:46:39;22.80;20.80;18.40
35654;PMS1003;21773;50.010;19.972;2022-11-15T10:49:56;24.00;21.00;18.60
35654;PMS1003;21773;50.010;19.972;2022-11-15T10:53:04;21.60;18.00;16.00
35654;PMS1003;21773;50.010;19.972;2022-11-15T10:56:18;21.00;20.00;17.00
35654;PMS1003;21773;50.010;19.972;2022-11-15T10:59:28;21.00;20.00;16.75
35654;PMS1003;21773;50.010;19.972;2022-11-15T11:02:40;21.50;20.75;17.75
35654;PMS1003;21773;50.010;19.972;2022-11-15T11:06:06;22.25;20.75;18.00
35654;PMS1003;21773;50.010;19.972;2022-11-15T11:09:19;21.00;19.00;16.25
35654;PMS1003;21773;50.010;19.972;2022-11-15T11:12:27;23.60;21.60;19.00
35654;PMS1003;21773;50.010;19.972;2022-11-15T11:15:34;22.60;21.60;18.00
35654;PMS1003;21773;50.010;19.972;2022-11-15T11:18:38;23.00;22.00;18.20
35654;PMS1003;21773;50.010;19.972;2022-11-15T11:21:52;29.80;25.00;20.40
35654;PMS1003;21773;50.010;19.972;2022-11-15T11:25:07;21.00;20.60;18.00
35654;PMS1003;21773;50.010;19.972;2022-11-15T11:28:23;29.00;27.20;21.20
35654;PMS1003;21773;50.010;19.972;2022-11-15T11:31:45;25.00;25.00;20.00
35654;PMS1003;21773;50.010;19.972;2022-11-15T11:34:59;27.40;25.00;20.00
35654;PMS1003;21773;50.010;19.972;2022-11-15T11:38:16;24.00;23.00;19.80
35654;PMS1003;21773;50.010;19.972;2022-11-15T11:41:37;30.60;25.00;21.00
35654;PMS1003;21773;50.010;19.972;2022-11-15T11:44:48;27.00;25.00;20.00
35654;PMS1003;21773;50.010;19.972;2022-11-15T11:48:02;29.20;27.00;21.20
35654;PMS1003;21773;50.010;19.972;2022-11-15T11:51:17;33.00;27.00;22.00
35654;PMS1003;21773;50.010;19.972;2022-11-15T11:54:24;31.60;28.60;22.00
35654;PMS1003;21773;50.010;19.972;2022-11-15T11:57:39;29.00;27.00;22.00
35654;PMS1003;21773;50.010;19.972;2022-11-15T12:00:50;35.75;30.00;22.75
35654;PMS1003;21773;50.010;19.972;2022-11-15T12:03:59;36.40;31.40;23.00
35654;PMS1003;21773;50.010;19.972;2022-11-15T12:07:12;36.80;32.00;24.00
35654;PMS1003;21773;50.010;19.972;2022-11-15T12:10:21;35.40;30.00;23.00
35654;PMS1003;21773;50.010;19.972;2022-11-15T12:13:29;38.60;33.00;24.20
35654;PMS1003;21773;50.010;19.972;2022-11-15T12:16:38;38.25;32.25;25.25
35654;PMS1003;21773;50.010;19.972;2022-11-15T12:19:46;36.25;32.00;25.50
35654;PMS1003;21773;50.010;19.972;2022-11-15T12:22:52;40.40;33.40;26.00
35654;PMS1003;21773;50.010;19.972;2022-11-15T12:26:00;47.00;36.00;27.60
35654;PMS1003;21773;50.010;19.972;2022-11-15T12:29:09;44.00;34.00;27.00
35654;PMS1003;21773;50.010;19.972;2022-11-15T12:32:22;44.00;35.60;27.00
35654;PMS1003;21773;50.010;19.972;2022-11-15T12:35:33;45.50;36.00;27.00
35654;PMS1003;21773;50.010;19.972;2022-11-15T12:38:50;43.00;35.20;26.20
35654;PMS1003;21773;50.010;19.972;2022-11-15T12:45:33;46.25;37.25;28.00
35654;PMS1003;21773;50.010;19.972;2022-11-15T12:48:46;42.40;35.60;27.00
35654;PMS1003;21773;50.010;19.972;2022-11-15T12:55:30;44.25;35.00;27.00
35654;PMS1003;21773;50.010;19.972;2022-11-15T12:58:42;41.00;35.00;27.00
35654;PMS1003;21773;50.010;19.972;2022-11-15T13:08:56;45.50;36.00;28.00
35654;PMS1003;21773;50.010;19.972;2022-11-15T13:11:59;45.80;36.00;27.00
35654;PMS1003;21773;50.010;19.972;2022-11-15T13:15:14;42.00;34.80;27.80
35654;PMS1003;21773;50.010;19.972;2022-11-15T13:18:43;38.40;33.00;25.60
35654;PMS1003;21773;50.010;19.972;2022-11-15T13:21:55;38.75;31.75;23.50
35654;PMS1003;21773;50.010;19.972;2022-11-15T13:25:19;42.20;34.60;26.00
35654;PMS1003;21773;50.010;19.972;2022-11-15T13:28:39;41.20;34.00;26.00
35654;PMS1003;21773;50.010;19.972;2022-11-15T13:31:47;43.50;33.50;26.00
35654;PMS1003;21773;50.010;19.972;2022-11-15T13:34:51;44.75;34.50;26.00
35654;PMS1003;21773;50.010;19.972;2022-11-15T13:37:55;41.00;33.80;26.80
35654;PMS1003;21773;50.010;19.972;2022-11-15T13:41:10;39.00;34.00;27.00
35654;PMS1003;21773;50.010;19.972;2022-11-15T13:44:23;38.60;32.00;25.00
35654;PMS1003;21773;50.010;19.972;2022-11-15T13:47:28;38.00;33.00;24.50
35654;PMS1003;21773;50.010;19.972;2022-11-15T13:50:33;41.60;35.40;27.40
35654;PMS1003;21773;50.010;19.972;2022-11-15T13:53:41;37.40;32.00;24.40
35654;PMS1003;21773;50.010;19.972;2022-11-15T13:56:56;38.20;32.80;25.20
35654;PMS1003;21773;50.010;19.972;2022-11-15T14:00:03;35.75;32.00;25.00
35654;PMS1003;21773;50.010;19.972;2022-11-15T14:03:15;36.40;32.00;24.40
35654;PMS1003;21773;50.010;19.972;2022-11-15T14:06:22;40.00;33.60;25.60
35654;PMS1003;21773;50.010;19.972;2022-11-15T14:09:36;39.00;33.00;26.00
35654;PMS1003;21773;50.010;19.972;2022-11-15T14:12:49;35.80;32.00;24.00
35654;PMS1003;21773;50.010;19.972;2022-11-15T14:15:54;40.60;33.60;26.00
35654;PMS1003;21773;50.010;19.972;2022-11-15T14:18:57;34.00;31.00;24.00
35654;PMS1003;21773;50.010;19.972;2022-11-15T14:22:07;36.20;32.00;24.00
35654;PMS1003;21773;50.010;19.972;2022-11-15T14:25:16;41.60;35.00;26.60
35654;PMS1003;21773;50.010;19.972;2022-11-15T14:28:40;39.20;32.60;25.60
35654;PMS1003;21773;50.010;19.972;2022-11-15T14:31:44;40.80;33.20;26.60
35654;PMS1003;21773;50.010;19.972;2022-11-15T14:34:48;36.80;32.00;25.20
35654;PMS1003;21773;50.010;19.972;2022-11-15T14:37:53;39.60;33.60;26.00
35654;PMS1003;21773;50.010;19.972;2022-11-15T14:40:56;40.60;33.40;25.60
35654;PMS1003;21773;50.010;19.972;2022-11-15T14:44:01;37.80;32.80;25.20
35654;PMS1003;21773;50.010;19.972;2022-11-15T14:47:05;37.00;32.20;24.80
35654;PMS1003;21773;50.010;19.972;2022-11-15T14:50:10;37.75;33.00;24.75
35654;PMS1003;21773;50.010;19.972;2022-11-15T14:53:15;41.00;34.60;26.00
35654;PMS1003;21773;50.010;19.972;2022-11-15T14:56:19;40.75;33.00;25.25
35654;PMS1003;21773;50.010;19.972;2022-11-15T14:59:24;43.00;33.40;25.00
35654;PMS1003;21773;50.010;19.972;2022-11-15T15:02:27;40.60;32.00;24.00
35654;PMS1003;21773;50.010;19.972;2022-11-15T15:05:31;42.75;33.00;26.00
35654;PMS1003;21773;50.010;19.972;2022-11-15T15:08:36;39.80;33.80;25.20
35654;PMS1003;21773;50.010;19.972;2022-11-15T15:11:39;39.80;33.00;26.20
35654;PMS1003;21773;50.010;19.972;2022-11-15T15:14:44;40.75;32.00;24.00
35654;PMS1003;21773;50.010;19.972;2022-11-15T15:17:49;39.60;33.40;26.00
35654;PMS1003;21773;50.010;19.972;2022-11-15T15:20:54;38.50;33.00;25.00
35654;PMS1003;21773;50.010;19.972;2022-11-15T15:24:01;39.50;33.50;26.00
35654;PMS1003;21773;50.010;19.972;2022-11-15T15:27:05;43.60;35.80;26.80
35654;PMS1003;21773;50.010;19.972;2022-11-15T15:30:10;46.80;37.00;28.00
35654;PMS1003;21773;50.010;19.972;2022-11-15T15:33:14;39.00;33.00;25.00
35654;PMS1003;21773;50.010;19.972;2022-11-15T15:36:18;42.00;33.00;26.00
35654;PMS1003;21773;50.010;19.972;2022-11-15T15:39:21;41.50;35.00;27.00
35654;PMS1003;21773;50.010;19.972;2022-11-15T15:42:25;39.00;32.00;24.00
35654;PMS1003;21773;50.010;19.972;2022-11-15T15:45:30;37.50;32.50;24.00
35654;PMS1003;21773;50.010;19.972;2022-11-15T15:48:34;37.25;32.25;24.00
35654;PMS1003;21773;50.010;19.972;2022-11-15T15:51:38;37.00;33.00;24.00
35654;PMS1003;21773;50.010;19.972;2022-11-15T15:54:42;41.80;33.80;26.00
35654;PMS1003;21773;50.010;19.972;2022-11-15T15:57:45;44.50;35.00;26.75
35654;PMS1003;21773;50.010;19.972;2022-11-15T16:00:50;37.00;32.60;24.00
35654;PMS1003;21773;50.010;19.972;2022-11-15T16:03:54;35.40;31.80;24.00
35654;PMS1003;21773;50.010;19.972;2022-11-15T16:06:58;39.80;33.00;26.00
35654;PMS1003;21773;50.010;19.972;2022-11-15T16:10:02;36.00;32.00;24.00
35654;PMS1003;21773;50.010;19.972;2022-11-15T16:13:17;41.00;34.00;27.00
35654;PMS1003;21773;50.010;19.972;2022-11-15T16:16:21;39.50;33.50;26.00
35654;PMS1003;21773;50.010;19.972;2022-11-15T16:19:25;50.60;41.00;30.60
35654;PMS1003;21773;50.010;19.972;2022-11-15T16:22:28;45.00;35.00;28.00
35654;PMS1003;21773;50.010;19.972;2022-11-15T16:25:32;39.40;34.00;27.00
35654;PMS1003;21773;50.010;19.972;2022-11-15T16:28:39;43.00;33.60;26.20
35654;PMS1003;21773;50.010;19.972;2022-11-15T16:31:44;39.00;35.00;26.60
35654;PMS1003;21773;50.010;19.972;2022-11-15T16:34:48;44.60;34.00;26.00
35654;PMS1003;21773;50.010;19.972;2022-11-15T16:37:51;43.40;34.00;26.00
35654;PMS1003;21773;50.010;19.972;2022-11-15T16:40:54;37.60;32.00;25.00
35654;PMS1003;21773;50.010;19.972;2022-11-15T16:43:57;38.60;33.00;26.00
35654;PMS1003;21773;50.010;19.972;2022-11-15T16:47:02;43.40;35.00;26.00
35654;PMS1003;21773;50.010;19.972;2022-11-15T16:50:06;39.00;33.00;26.00
35654;PMS1003;21773;50.010;19.972;2022-11-15T16:53:16;35.75;32.00;24.00
35654;PMS1003;21773;50.010;19.972;2022-11-15T16:56:24;37.00;32.40;25.00
35654;PMS1003;21773;50.010;19.972;2022-11-15T16:59:28;33.40;30.80;24.00
35654;PMS1003;21773;50.010;19.972;2022-11-15T17:02:40;35.25;32.00;24.75
35654;PMS1003;21773;50.010;19.972;2022-11-15T17:05:44;37.60;31.60;24.60
35654;PMS1003;21773;50.010;19.972;2022-11-15T17:08:47;37.20;31.60;23.80
35654;PMS1003;21773;50.010;19.972;2022-11-15T17:11:51;35.60;31.80;24.00
35654;PMS1003;21773;50.010;19.972;2022-11-15T17:14:54;38.00;32.00;25.00
35654;PMS1003;21773;50.010;19.972;2022-11-15T17:17:59;35.50;32.00;25.00
35654;PMS1003;21773;50.010;19.972;2022-11-15T17:21:03;38.20;33.40;26.20
35654;PMS1003;21773;50.010;19.972;2022-11-15T17:24:08;37.20;32.20;26.00
35654;PMS1003;21773;50.010;19.972;2022-11-15T17:27:12;42.00;32.20;25.00
35654;PMS1003;21773;50.010;19.972;2022-11-15T17:30:15;36.60;32.00;25.00
35654;PMS1003;21773;50.010;19.972;2022-11-15T17:33:20;39.00;32.75;25.50
35654;PMS1003;21773;50.010;19.972;2022-11-15T17:36:24;35.33;30.67;23.67
35654;PMS1003;21773;50.010;19.972;2022-11-15T17:39:27;43.00;35.00;27.00
35654;PMS1003;21773;50.010;19.972;2022-11-15T17:42:30;44.80;35.00;26.40
35654;PMS1003;21773;50.010;19.972;2022-11-15T17:45:34;39.75;33.75;26.75
35654;PMS1003;21773;50.010;19.972;2022-11-15T17:48:43;36.60;32.60;26.00
35654;PMS1003;21773;50.010;19.972;2022-11-15T17:51:47;42.00;34.25;27.00
35654;PMS1003;21773;50.010;19.972;2022-11-15T17:54:50;44.00;34.00;26.25
35654;PMS1003;21773;50.010;19.972;2022-11-15T17:57:54;44.60;36.00;27.20
35654;PMS1003;21773;50.010;19.972;2022-11-15T18:01:03;43.20;35.20;26.80
35654;PMS1003;21773;50.010;19.972;2022-11-15T18:04:10;47.60;40.00;31.00
35654;PMS1003;21773;50.010;19.972;2022-11-15T18:07:15;43.00;34.40;26.40
35654;PMS1003;21773;50.010;19.972;2022-11-15T18:10:19;44.00;35.00;27.00
35654;PMS1003;21773;50.010;19.972;2022-11-15T18:13:22;42.00;34.60;27.00
35654;PMS1003;21773;50.010;19.972;2022-11-15T18:16:27;43.00;35.50;27.00
35654;PMS1003;21773;50.010;19.972;2022-11-15T18:19:33;40.00;34.00;26.00
35654;PMS1003;21773;50.010;19.972;2022-11-15T18:22:37;40.00;33.60;26.60
35654;PMS1003;21773;50.010;19.972;2022-11-15T18:25:40;38.00;33.00;27.00